createdAt,value
2022-10-18T00:02:39.301Z,102577.59
2022-10-18T00:05:40.653Z,102576.84
2022-10-18T00:08:42.057Z,102582.28
2022-10-18T00:11:43.409Z,102586.00
2022-10-18T00:14:44.742Z,102593.84
2022-10-18T00:17:46.086Z,102597.34
2022-10-18T00:21:00.281Z,102588.66
2022-10-18T00:24:01.869Z,102585.28
2022-10-18T00:27:03.245Z,102587.09
2022-10-18T00:30:05.450Z,102594.09
2022-10-18T00:33:06.797Z,102596.75
2022-10-18T00:36:08.836Z,102589.94
2022-10-18T00:39:15.826Z,102592.66
2022-10-18T00:42:19.606Z,102599.63
2022-10-18T00:45:23.265Z,102608.44
2022-10-18T00:48:24.770Z,102603.25
2022-10-18T00:51:30.951Z,102597.28
2022-10-18T00:54:36.727Z,102603.38
2022-10-18T00:57:41.641Z,102600.91
2022-10-18T01:00:43.101Z,102611.47
2022-10-18T01:03:44.548Z,102616.84
2022-10-18T01:07:21.536Z,102607.47
2022-10-18T01:10:47.323Z,102609.22
2022-10-18T01:13:54.756Z,102605.00
2022-10-18T01:17:01.123Z,102602.44
2022-10-18T01:20:37.303Z,102603.50
2022-10-18T01:24:14.289Z,102602.09
2022-10-18T01:27:45.237Z,102595.06
2022-10-18T01:31:09.772Z,102595.88
2022-10-18T01:34:15.530Z,102598.59
2022-10-18T01:37:19.777Z,102602.94
2022-10-18T01:40:23.464Z,102611.72
2022-10-18T01:43:27.553Z,102622.97
2022-10-18T01:46:29.396Z,102624.59
2022-10-18T01:49:30.730Z,102627.03
2022-10-18T01:52:32.431Z,102637.19
2022-10-18T01:55:48.460Z,102630.25
2022-10-18T01:59:11.085Z,102626.91
2022-10-18T02:02:12.399Z,102625.25
2022-10-18T02:05:31.298Z,102627.03
2022-10-18T02:08:48.495Z,102624.91
2022-10-18T02:11:53.827Z,102620.97
2022-10-18T02:14:57.354Z,102617.06
2022-10-18T02:17:59.175Z,102613.78
2022-10-18T02:21:02.723Z,102616.44
2022-10-18T02:24:06.016Z,102616.47
2022-10-18T02:27:07.677Z,102613.94
2022-10-18T02:30:09.968Z,102616.03
2022-10-18T02:33:27.915Z,102613.44
2022-10-18T02:36:38.661Z,102611.63
2022-10-18T02:39:47.663Z,102623.38
2022-10-18T02:42:51.296Z,102620.44
2022-10-18T02:45:53.096Z,102624.56
2022-10-18T02:48:54.449Z,102626.09
2022-10-18T02:51:55.775Z,102610.34
2022-10-18T02:54:57.112Z,102605.09
2022-10-18T02:57:58.452Z,102597.28
2022-10-18T03:00:59.792Z,102604.16
2022-10-18T03:04:01.403Z,102598.91
2022-10-18T03:07:02.816Z,102596.22
2022-10-18T03:10:04.425Z,102591.03
2022-10-18T03:13:05.860Z,102596.22
2022-10-18T03:16:07.224Z,102597.16
2022-10-18T03:19:08.569Z,102592.94
2022-10-18T03:22:09.980Z,102591.38
2022-10-18T03:25:11.336Z,102582.81
2022-10-18T03:28:12.785Z,102585.53
2022-10-18T03:31:14.171Z,102591.78
2022-10-18T03:34:15.523Z,102590.25
2022-10-18T03:37:16.869Z,102593.84
2022-10-18T03:40:18.207Z,102586.97
2022-10-18T03:43:19.660Z,102575.00
2022-10-18T03:46:21.038Z,102570.75
2022-10-18T03:49:22.429Z,102574.41
2022-10-18T03:52:23.839Z,102578.84
2022-10-18T03:55:25.181Z,102582.44
2022-10-18T03:58:26.656Z,102579.06
2022-10-18T04:01:28.062Z,102573.03
2022-10-18T04:04:29.414Z,102583.56
2022-10-18T04:07:30.897Z,102580.97
2022-10-18T04:10:32.327Z,102573.94
2022-10-18T04:13:34.603Z,102578.13
2022-10-18T04:19:42.172Z,102585.75
2022-10-18T04:22:43.508Z,102577.06
2022-10-18T04:25:44.868Z,102563.19
2022-10-18T04:28:46.302Z,102567.47
2022-10-18T04:31:47.700Z,102581.19
2022-10-18T04:34:49.052Z,102575.78
2022-10-18T04:37:50.407Z,102577.47
2022-10-18T04:40:51.782Z,102576.47
2022-10-18T04:43:53.121Z,102579.88
2022-10-18T04:46:54.508Z,102581.50
2022-10-18T04:49:55.836Z,102574.56
2022-10-18T04:52:57.363Z,102581.31
2022-10-18T04:55:58.759Z,102583.78
2022-10-18T04:59:00.112Z,102577.69
2022-10-18T05:02:01.483Z,102580.22
2022-10-18T05:05:02.959Z,102582.88
2022-10-18T05:08:04.796Z,102570.81
2022-10-18T05:11:06.254Z,102577.13
2022-10-18T05:14:07.666Z,102577.28
2022-10-18T05:17:09.094Z,102573.09
2022-10-18T05:20:10.663Z,102568.00
2022-10-18T05:23:12.297Z,102560.44
2022-10-18T05:26:13.618Z,102562.41
2022-10-18T05:29:15.075Z,102567.59
2022-10-18T05:32:16.714Z,102569.53
2022-10-18T05:35:18.058Z,102573.09
2022-10-18T05:38:19.502Z,102574.00
2022-10-18T05:41:21.277Z,102566.13
2022-10-18T05:44:22.679Z,102573.78
2022-10-18T06:13:00.963Z,102607.47
2022-10-18T06:16:02.289Z,102607.47
2022-10-18T06:19:03.899Z,102616.16
2022-10-18T06:22:05.211Z,102617.91
2022-10-18T06:25:06.753Z,102609.28
2022-10-18T06:28:10.205Z,102603.28
2022-10-18T06:31:14.070Z,102604.25
2022-10-18T06:34:15.450Z,102598.06
2022-10-18T06:37:16.756Z,102606.59
2022-10-18T06:40:18.091Z,102607.25
2022-10-18T06:43:21.503Z,102606.22
2022-10-18T06:46:23.620Z,102613.84
2022-10-18T06:49:25.007Z,102612.00
2022-10-18T06:52:26.357Z,102629.16
2022-10-18T06:55:27.857Z,102628.94
2022-10-18T06:58:30.313Z,102631.34
2022-10-18T07:01:31.750Z,102633.81
2022-10-18T07:04:33.189Z,102644.84
2022-10-18T07:07:34.794Z,102647.44
2022-10-18T07:10:36.425Z,102654.94
2022-10-18T07:13:37.766Z,102655.56
2022-10-18T07:16:39.135Z,102644.06
2022-10-18T07:19:40.479Z,102630.25
2022-10-18T07:22:41.910Z,102634.63
2022-10-18T07:25:43.230Z,102635.56
2022-10-18T07:28:47.378Z,102651.84
2022-10-18T07:31:48.790Z,102644.88
2022-10-18T07:34:50.118Z,102650.91
2022-10-18T07:37:51.455Z,102656.16
2022-10-18T07:41:04.223Z,102667.31
2022-10-18T07:44:05.547Z,102686.97
2022-10-18T07:47:06.887Z,102680.84
2022-10-18T07:50:08.552Z,102673.88
2022-10-18T07:53:09.863Z,102672.88
2022-10-18T07:56:13.916Z,102672.72
2022-10-18T07:59:15.229Z,102665.88
2022-10-18T08:02:16.563Z,102680.44
2022-10-18T08:05:17.889Z,102676.06
2022-10-18T08:08:20.315Z,102667.47
2022-10-18T08:11:24.213Z,102662.19
2022-10-18T08:14:25.625Z,102667.13
2022-10-18T08:17:26.980Z,102651.50
2022-10-18T08:20:31.573Z,102654.09
2022-10-18T08:23:34.108Z,102656.47
2022-10-18T08:26:35.469Z,102647.94
2022-10-18T08:29:36.878Z,102648.91
2022-10-18T08:32:38.245Z,102664.66
2022-10-18T08:35:39.614Z,102653.41
2022-10-18T08:38:42.361Z,102655.16
2022-10-18T08:42:08.750Z,102647.50
2022-10-18T08:45:23.443Z,102643.19
2022-10-18T08:48:54.914Z,102659.16
2022-10-18T08:51:57.861Z,102666.97
2022-10-18T08:55:31.213Z,102666.81
2022-10-18T08:58:33.226Z,102669.59
2022-10-18T09:02:09.438Z,102668.53
2022-10-18T09:05:25.136Z,102660.94
2022-10-18T09:08:47.760Z,102661.25
2022-10-18T09:12:13.878Z,102666.56
2022-10-18T09:15:29.658Z,102665.03
2022-10-18T09:18:55.887Z,102670.03
2022-10-18T09:22:13.588Z,102672.53
2022-10-18T09:25:36.128Z,102678.06
2022-10-18T09:28:48.099Z,102676.44
2022-10-18T09:32:04.362Z,102677.56
2022-10-18T09:35:17.762Z,102681.72
2022-10-18T09:38:23.243Z,102675.47
2022-10-18T09:41:51.403Z,102678.66
2022-10-18T09:45:28.751Z,102678.97
2022-10-18T09:48:41.390Z,102683.09
2022-10-18T09:51:44.764Z,102691.78
2022-10-18T09:55:02.964Z,102678.22
2022-10-18T09:58:07.827Z,102675.75
2022-10-18T10:01:11.445Z,102673.88
2022-10-18T10:04:12.761Z,102661.81
2022-10-18T10:07:34.862Z,102666.31
2022-10-18T10:10:40.213Z,102663.94
2022-10-18T10:13:41.545Z,102665.25
2022-10-18T10:17:05.157Z,102659.88
2022-10-18T10:20:21.118Z,102655.38
2022-10-18T10:23:53.940Z,102653.22
2022-10-18T10:27:01.203Z,102657.81
2022-10-18T10:30:06.987Z,102659.31
2022-10-18T10:33:38.375Z,102659.97
2022-10-18T10:36:53.156Z,102658.41
2022-10-18T10:40:18.222Z,102664.66
2022-10-18T10:43:37.683Z,102670.03
2022-10-18T10:46:39.875Z,102671.28
2022-10-18T10:49:45.781Z,102682.28
2022-10-18T10:52:47.402Z,102677.56
2022-10-18T10:55:54.737Z,102685.53
2022-10-18T10:59:01.660Z,102681.63
2022-10-18T11:02:15.038Z,102682.72
2022-10-18T11:05:16.322Z,102685.19
2022-10-18T11:08:26.993Z,102685.78
2022-10-18T11:11:33.486Z,102686.22
2022-10-18T11:14:44.651Z,102689.84
2022-10-18T11:18:18.315Z,102688.16
2022-10-18T11:21:23.206Z,102689.22
2022-10-18T11:24:24.848Z,102686.34
2022-10-18T11:27:39.232Z,102681.16
2022-10-18T11:31:10.504Z,102688.16
2022-10-18T11:34:23.959Z,102687.03
2022-10-18T11:38:00.292Z,102672.91
2022-10-18T11:41:27.294Z,102670.38
2022-10-18T11:44:56.241Z,102677.19
2022-10-18T11:48:09.632Z,102667.25
2022-10-18T11:51:38.875Z,102672.03
2022-10-18T11:55:30.310Z,102672.31
2022-10-18T11:59:02.253Z,102672.22
2022-10-18T12:02:29.482Z,102671.91
2022-10-18T12:05:32.739Z,102677.78
2022-10-18T12:08:46.814Z,102668.91
2022-10-18T12:11:55.706Z,102663.81
2022-10-18T12:15:02.482Z,102665.13
2022-10-18T12:18:13.113Z,102669.72
2022-10-18T12:21:14.465Z,102670.69
2022-10-18T12:24:20.386Z,102679.03
2022-10-18T12:27:33.966Z,102674.75
2022-10-18T12:30:44.150Z,102669.22
2022-10-18T12:33:50.203Z,102668.28
2022-10-18T12:37:25.471Z,102666.44
2022-10-18T12:40:43.754Z,102666.63
2022-10-18T12:43:52.175Z,102671.03
2022-10-18T12:46:56.174Z,102674.06
2022-10-18T12:50:00.483Z,102670.97
2022-10-18T12:53:17.835Z,102672.66
2022-10-18T12:56:28.316Z,102669.25
2022-10-18T12:59:29.639Z,102674.06
2022-10-18T13:02:31.572Z,102673.66
2022-10-18T13:06:00.710Z,102681.94
2022-10-18T13:09:17.443Z,102686.47
2022-10-18T13:12:18.711Z,102681.81
2022-10-18T13:15:47.088Z,102673.72
2022-10-18T13:18:55.271Z,102678.31
2022-10-18T13:22:21.381Z,102669.44
2022-10-18T13:25:54.245Z,102669.91
2022-10-18T13:29:14.499Z,102672.81
2022-10-18T13:32:36.554Z,102667.59
2022-10-18T13:35:55.743Z,102679.09
2022-10-18T13:38:57.037Z,102676.56
2022-10-18T13:41:58.326Z,102673.88
2022-10-18T13:45:32.176Z,102684.91
2022-10-18T13:48:33.461Z,102685.94
2022-10-18T13:51:37.473Z,102684.41
2022-10-18T13:54:57.637Z,102673.91
2022-10-18T13:58:41.110Z,102676.94
2022-10-18T14:01:53.304Z,102674.09
2022-10-18T14:05:25.869Z,102684.72
2022-10-18T14:08:39.984Z,102680.25
2022-10-18T14:11:46.404Z,102679.44
2022-10-18T14:14:57.679Z,102677.06
2022-10-18T14:18:04.607Z,102681.50
2022-10-18T14:21:21.620Z,102685.84
2022-10-18T14:24:26.910Z,102684.06
2022-10-18T14:27:31.004Z,102695.06
2022-10-18T14:30:32.772Z,102693.56
2022-10-18T14:33:37.686Z,102696.38
2022-10-18T14:36:45.512Z,102695.75
2022-10-18T14:39:46.938Z,102702.78
2022-10-18T14:42:48.904Z,102694.47
2022-10-18T14:45:50.281Z,102700.50
2022-10-18T14:48:52.244Z,102693.25
2022-10-18T14:51:56.640Z,102694.97
2022-10-18T14:54:59.465Z,102701.03
2022-10-18T14:58:01.873Z,102699.50
2022-10-18T15:01:04.352Z,102698.25
2022-10-18T15:04:10.267Z,102702.75
2022-10-18T15:07:17.245Z,102706.47
2022-10-18T15:10:25.490Z,102705.84
2022-10-18T15:13:27.646Z,102709.59
2022-10-18T15:16:31.481Z,102706.13
2022-10-18T15:19:37.681Z,102704.50
2022-10-18T15:22:39.058Z,102709.94
2022-10-18T15:25:40.431Z,102699.00
2022-10-18T15:28:44.142Z,102706.69
2022-10-18T15:31:48.007Z,102695.75
2022-10-18T15:34:49.378Z,102700.34
2022-10-18T15:37:51.182Z,102697.16
2022-10-18T15:40:53.023Z,102696.59
2022-10-18T15:44:18.175Z,102698.91
2022-10-18T15:47:20.223Z,102701.72
2022-10-18T15:50:40.415Z,102697.59
2022-10-18T15:53:53.497Z,102694.22
2022-10-18T15:56:55.234Z,102696.28
2022-10-18T16:00:07.573Z,102687.31
2022-10-18T16:03:16.045Z,102689.84
2022-10-18T16:06:18.556Z,102688.63
2022-10-18T16:09:21.192Z,102688.44
2022-10-18T16:12:22.545Z,102689.69
2022-10-18T16:15:24.085Z,102697.03
2022-10-18T16:18:26.229Z,102704.91
2022-10-18T16:21:30.809Z,102696.66
2022-10-18T16:24:32.150Z,102698.59
2022-10-18T16:27:33.501Z,102696.72
2022-10-18T16:30:35.920Z,102696.50
2022-10-18T16:33:37.237Z,102703.44
2022-10-18T16:36:38.577Z,102709.56
2022-10-18T16:39:39.959Z,102701.91
2022-10-18T16:42:41.289Z,102703.56
2022-10-18T16:45:42.878Z,102709.75
2022-10-18T16:48:45.667Z,102715.72
2022-10-18T16:51:47.038Z,102709.00
2022-10-18T16:54:48.370Z,102721.00
2022-10-18T16:57:49.722Z,102716.66
2022-10-18T17:00:51.775Z,102724.66
2022-10-18T17:03:53.811Z,102720.47
2022-10-18T17:06:57.592Z,102728.97
2022-10-18T17:09:58.919Z,102723.00
2022-10-18T17:13:00.277Z,102734.22
2022-10-18T17:16:01.737Z,102731.56
2022-10-18T17:19:05.655Z,102728.25
2022-10-18T17:22:06.988Z,102736.28
2022-10-18T17:25:08.492Z,102734.59
2022-10-18T17:28:12.616Z,102746.63
2022-10-18T17:31:14.813Z,102746.69
2022-10-18T17:34:20.835Z,102744.34
2022-10-18T17:37:22.639Z,102745.09
2022-10-18T17:40:24.084Z,102748.50
2022-10-18T17:43:25.451Z,102750.97
2022-10-18T17:46:26.868Z,102764.78
2022-10-18T17:49:28.348Z,102767.38
2022-10-18T17:52:30.237Z,102763.09
2022-10-18T17:55:33.224Z,102766.75
2022-10-18T17:58:35.019Z,102765.84
2022-10-18T18:01:36.499Z,102773.81
2022-10-18T18:04:37.889Z,102785.09
2022-10-18T18:07:39.238Z,102782.50
2022-10-18T18:10:41.149Z,102778.13
2022-10-18T18:13:42.562Z,102776.44
2022-10-18T18:16:46.274Z,102777.25
2022-10-18T18:22:53.895Z,102770.50
2022-10-18T18:25:56.573Z,102775.72
2022-10-18T18:28:58.335Z,102783.78
2022-10-18T18:31:59.778Z,102782.91
2022-10-18T18:35:01.242Z,102778.50
2022-10-18T18:41:20.084Z,102779.38
2022-10-18T18:44:22.552Z,102777.78
2022-10-18T18:47:23.949Z,102768.22
2022-10-18T18:50:25.378Z,102773.41
2022-10-18T18:53:29.510Z,102765.69
2022-10-18T18:56:31.314Z,102771.81
2022-10-18T18:59:32.682Z,102777.97
2022-10-18T19:02:34.043Z,102786.69
2022-10-18T19:05:36.331Z,102781.50
2022-10-18T19:08:39.119Z,102774.59
2022-10-18T19:11:40.599Z,102768.56
2022-10-18T19:14:41.951Z,102784.16
2022-10-18T19:17:43.287Z,102787.75
2022-10-18T19:20:44.639Z,102797.22
2022-10-18T19:23:45.979Z,102789.72
2022-10-18T19:26:51.799Z,102789.94
2022-10-18T19:29:53.161Z,102797.84
2022-10-18T19:32:54.520Z,102797.53
2022-10-18T19:35:55.896Z,102797.56
2022-10-18T19:38:57.823Z,102803.69
2022-10-18T19:42:00.761Z,102793.25
2022-10-18T19:45:02.140Z,102800.22
2022-10-18T19:48:03.828Z,102799.31
2022-10-18T19:51:09.004Z,102802.88
2022-10-18T19:54:12.608Z,102807.22
2022-10-18T19:57:14.007Z,102809.00
2022-10-18T20:00:19.300Z,102817.53
2022-10-18T20:03:21.818Z,102817.72
2022-10-18T20:06:23.241Z,102818.66
2022-10-18T20:09:24.606Z,102820.69
2022-10-18T20:12:25.962Z,102824.16
2022-10-18T20:15:27.308Z,102828.63
2022-10-18T20:18:28.665Z,102832.94
2022-10-18T20:21:31.451Z,102829.50
2022-10-18T20:24:32.803Z,102832.56
2022-10-18T20:27:34.371Z,102831.25
2022-10-18T20:30:36.051Z,102829.00
2022-10-18T20:33:38.211Z,102835.38
2022-10-18T20:36:40.036Z,102838.34
2022-10-18T20:39:41.374Z,102841.22
2022-10-18T20:42:42.715Z,102836.41
2022-10-18T20:45:44.068Z,102832.25
2022-10-18T20:48:45.389Z,102832.56
2022-10-18T20:51:46.723Z,102837.03
2022-10-18T20:54:48.052Z,102835.41
2022-10-18T20:57:49.376Z,102833.75
2022-10-18T21:00:50.704Z,102829.41
2022-10-18T21:03:53.795Z,102824.78
2022-10-18T21:06:55.201Z,102833.53
2022-10-18T21:09:56.528Z,102826.59
2022-10-18T21:12:57.884Z,102830.00
2022-10-18T21:16:00.708Z,102826.31
2022-10-18T21:19:06.774Z,102831.41
2022-10-18T21:22:08.129Z,102833.91
2022-10-18T21:25:09.462Z,102835.56
2022-10-18T21:28:10.849Z,102834.66
2022-10-18T21:31:15.169Z,102828.59
2022-10-18T21:34:17.276Z,102825.41
2022-10-18T21:37:18.622Z,102816.25
2022-10-18T21:40:19.989Z,102826.84
2022-10-18T21:43:21.339Z,102826.09
2022-10-18T21:46:24.423Z,102825.28
2022-10-18T21:49:25.758Z,102826.94
2022-10-18T21:52:27.110Z,102826.59
2022-10-18T21:55:28.486Z,102829.00
2022-10-18T21:58:29.817Z,102835.78
2022-10-18T22:01:33.763Z,102834.00
2022-10-18T22:04:35.160Z,102836.63
2022-10-18T22:07:36.678Z,102827.50
2022-10-18T22:10:38.180Z,102824.34
2022-10-18T22:13:40.734Z,102825.22
2022-10-18T22:16:42.088Z,102828.63
2022-10-18T22:19:43.454Z,102827.78
2022-10-18T22:22:44.787Z,102824.22
2022-10-18T22:25:46.139Z,102827.66
2022-10-18T22:28:48.031Z,102816.41
2022-10-18T22:31:52.173Z,102800.94
2022-10-18T22:34:53.498Z,102818.31
2022-10-18T22:37:54.822Z,102814.03
2022-10-18T22:40:56.153Z,102814.97
2022-10-18T22:43:59.779Z,102808.81
2022-10-18T22:47:03.972Z,102811.28
2022-10-18T22:50:05.828Z,102806.84
2022-10-18T22:53:07.396Z,102801.75
2022-10-18T22:56:12.408Z,102797.63
2022-10-18T22:59:13.747Z,102800.34
2022-10-18T23:02:15.084Z,102793.47
2022-10-18T23:05:16.471Z,102799.44
2022-10-18T23:08:17.812Z,102800.34
2022-10-18T23:11:19.688Z,102801.16
2022-10-18T23:14:21.022Z,102799.50
2022-10-18T23:17:22.341Z,102802.03
2022-10-18T23:20:24.337Z,102804.56
2022-10-18T23:23:25.654Z,102811.47
2022-10-18T23:26:27.869Z,102807.22
2022-10-18T23:29:29.193Z,102814.34
2022-10-18T23:32:30.633Z,102820.53
2022-10-18T23:35:32.043Z,102813.72
2022-10-18T23:38:34.637Z,102817.16
2022-10-18T23:41:35.981Z,102811.09
2022-10-18T23:44:37.293Z,102811.94
2022-10-18T23:47:38.622Z,102803.34
2022-10-18T23:50:39.975Z,102804.16
2022-10-18T23:53:41.474Z,102804.97
2022-10-18T23:56:42.859Z,102805.97
2022-10-18T23:59:44.182Z,102819.06
